createdAt,value
2022-11-22T00:01:09.233Z,50.97
2022-11-22T00:06:17.641Z,45.50
2022-11-22T00:11:25.357Z,47.73
2022-11-22T00:16:35.079Z,51.67
2022-11-22T00:21:42.731Z,45.53
2022-11-22T00:26:50.755Z,45.80
2022-11-22T00:31:59.326Z,41.83
2022-11-22T00:37:07.876Z,40.77
2022-11-22T00:42:15.531Z,39.73
2022-11-22T00:47:23.538Z,34.93
2022-11-22T00:52:31.965Z,33.83
2022-11-22T00:57:40.197Z,28.50
2022-11-22T01:02:48.360Z,35.77
2022-11-22T01:07:56.726Z,32.20
2022-11-22T01:13:05.345Z,30.57
2022-11-22T01:18:13.261Z,34.20
2022-11-22T01:23:21.924Z,29.83
2022-11-22T01:28:29.410Z,34.00
2022-11-22T01:33:36.847Z,32.93
2022-11-22T01:38:45.635Z,40.53
2022-11-22T01:43:53.632Z,41.20
2022-11-22T01:49:05.991Z,38.23
2022-11-22T01:54:17.200Z,47.37
2022-11-22T01:59:27.054Z,48.83
2022-11-22T02:04:34.976Z,58.27
2022-11-22T02:09:42.440Z,54.57
2022-11-22T02:14:51.933Z,62.67
2022-11-22T02:20:00.364Z,51.23
2022-11-22T02:25:29.728Z,48.97
2022-11-22T02:30:39.304Z,50.50
2022-11-22T02:35:53.329Z,50.00
2022-11-22T02:41:06.793Z,43.20
2022-11-22T02:46:21.669Z,39.23
2022-11-22T02:51:29.802Z,43.03
2022-11-22T02:56:37.452Z,48.70
2022-11-22T03:01:45.716Z,49.37
2022-11-22T03:06:57.798Z,52.87
2022-11-22T03:12:05.677Z,47.17
2022-11-22T03:17:14.398Z,47.90
2022-11-22T03:22:22.397Z,53.53
2022-11-22T03:27:30.066Z,53.53
2022-11-22T03:32:37.809Z,45.20
2022-11-22T03:37:45.885Z,59.17
2022-11-22T03:42:54.028Z,47.73
2022-11-22T03:48:02.303Z,50.30
2022-11-22T03:53:10.062Z,42.37
2022-11-22T03:58:17.727Z,61.47
2022-11-22T04:03:25.179Z,50.40
2022-11-22T04:08:33.599Z,45.67
2022-11-22T04:13:58.597Z,52.40
2022-11-22T04:19:06.281Z,54.47
2022-11-22T04:24:31.947Z,47.40
2022-11-22T04:29:39.606Z,57.23
2022-11-22T04:34:46.925Z,62.97
2022-11-22T04:39:54.644Z,49.60
2022-11-22T04:45:02.909Z,54.70
2022-11-22T04:50:28.439Z,53.03
2022-11-22T04:55:36.306Z,67.30
2022-11-22T05:00:44.368Z,69.47
2022-11-22T05:05:52.597Z,55.43
2022-11-22T05:11:00.877Z,63.33
2022-11-22T05:16:10.206Z,60.33
2022-11-22T05:21:17.619Z,53.97
2022-11-22T05:26:32.755Z,53.50
2022-11-22T05:31:44.734Z,72.03
2022-11-22T05:36:52.425Z,73.17
2022-11-22T05:42:00.494Z,71.53
2022-11-22T05:47:09.911Z,62.33
2022-11-22T05:52:17.627Z,59.60
2022-11-22T05:57:25.649Z,45.30
2022-11-22T06:02:33.638Z,45.23
2022-11-22T06:07:41.450Z,52.30
2022-11-22T06:12:51.435Z,56.17
2022-11-22T06:17:58.827Z,49.03
2022-11-22T06:23:06.491Z,57.23
2022-11-22T06:28:15.520Z,45.67
2022-11-22T06:33:23.357Z,47.13
2022-11-22T06:38:31.459Z,48.37
2022-11-22T06:43:45.117Z,62.67
2022-11-22T06:48:50.836Z,59.70
2022-11-22T06:53:58.959Z,52.77
2022-11-22T06:59:08.182Z,54.33
2022-11-22T07:04:16.338Z,44.27
2022-11-22T07:09:24.619Z,53.67
2022-11-22T07:14:32.400Z,54.20
2022-11-22T07:19:40.004Z,52.07
2022-11-22T07:24:47.653Z,63.13
2022-11-22T07:29:55.358Z,57.40
2022-11-22T07:35:03.184Z,56.87
2022-11-22T07:40:12.438Z,54.17
2022-11-22T07:45:20.258Z,55.47
2022-11-22T07:50:29.007Z,57.40
2022-11-22T07:55:36.989Z,63.20
2022-11-22T08:00:44.598Z,61.13
2022-11-22T08:05:52.194Z,57.20
2022-11-22T08:10:59.840Z,67.87
2022-11-22T08:16:09.580Z,54.17
2022-11-22T08:21:18.731Z,60.27
2022-11-22T08:26:26.774Z,54.00
2022-11-22T08:31:45.144Z,47.03
2022-11-22T08:36:57.557Z,51.80
2022-11-22T08:42:07.211Z,54.43
2022-11-22T08:47:16.507Z,59.97
2022-11-22T08:52:25.032Z,57.13
2022-11-22T08:57:33.404Z,47.97
2022-11-22T09:02:41.079Z,54.57
2022-11-22T09:12:58.170Z,60.93
2022-11-22T09:18:06.463Z,45.70
2022-11-22T09:23:14.179Z,49.30
2022-11-22T09:28:21.805Z,39.53
2022-11-22T09:33:30.195Z,51.73
2022-11-22T09:38:38.602Z,41.97
2022-11-22T09:44:13.449Z,47.37
2022-11-22T09:49:29.614Z,44.47
2022-11-22T09:54:56.635Z,45.37
2022-11-22T10:00:21.582Z,42.80
2022-11-22T10:05:38.584Z,40.83
2022-11-22T10:10:46.265Z,37.65
2022-11-22T10:16:16.354Z,40.37
2022-11-22T10:21:24.036Z,38.13
2022-11-22T10:26:36.162Z,43.40
2022-11-22T10:31:56.946Z,39.83
2022-11-22T10:37:17.448Z,39.80
2022-11-22T10:42:33.898Z,43.00
2022-11-22T10:47:47.579Z,42.80
2022-11-22T10:53:11.504Z,38.93
2022-11-22T10:58:48.292Z,38.80
2022-11-22T11:03:57.815Z,38.50
2022-11-22T11:10:09.302Z,35.47
2022-11-22T11:14:35.599Z,41.43
2022-11-22T11:19:43.373Z,39.33
2022-11-22T11:24:51.092Z,45.70
2022-11-22T11:30:03.717Z,41.00
2022-11-22T11:35:15.274Z,41.13
2022-11-22T11:40:30.310Z,40.60
2022-11-22T11:45:38.004Z,39.40
2022-11-22T11:50:45.988Z,36.43
2022-11-22T11:55:53.642Z,41.77
2022-11-22T12:01:02.024Z,48.70
2022-11-22T12:06:14.925Z,49.13
2022-11-22T12:11:26.647Z,46.00
2022-11-22T12:16:40.701Z,50.80
2022-11-22T12:21:57.512Z,46.00
2022-11-22T12:27:07.095Z,57.45
2022-11-22T12:32:20.109Z,46.57
2022-11-22T12:37:42.487Z,48.83
2022-11-22T12:42:58.563Z,50.40
2022-11-22T12:48:12.383Z,53.03
2022-11-22T12:53:29.041Z,43.37
2022-11-22T12:58:54.826Z,52.93
2022-11-22T13:04:12.959Z,46.17
2022-11-22T13:09:27.124Z,45.53
2022-11-22T13:14:39.991Z,44.80
2022-11-22T13:19:57.570Z,44.90
2022-11-22T13:25:11.394Z,54.80
2022-11-22T13:30:24.972Z,48.10
2022-11-22T13:35:33.393Z,69.10
2022-11-22T13:40:46.322Z,51.13
2022-11-22T13:46:02.117Z,45.87
2022-11-22T13:51:12.506Z,48.80
2022-11-22T13:56:28.918Z,47.60
2022-11-22T14:01:40.323Z,49.18
2022-11-22T14:06:52.348Z,56.93
2022-11-22T14:12:31.772Z,56.67
2022-11-22T14:17:48.018Z,58.63
2022-11-22T14:23:17.439Z,55.93
2022-11-22T14:28:53.714Z,78.27
2022-11-22T14:34:29.986Z,78.17
2022-11-22T14:39:54.681Z,106.33
2022-11-22T14:45:11.569Z,100.20
2022-11-22T14:50:22.943Z,83.78
2022-11-22T14:55:34.856Z,69.17
2022-11-22T15:00:58.224Z,63.17
2022-11-22T15:09:23.400Z,70.67
2022-11-22T15:11:48.197Z,73.73
2022-11-22T15:58:48.840Z,72.70
2022-11-22T16:03:57.650Z,77.87
2022-11-22T16:09:06.434Z,93.30
2022-11-22T16:14:34.119Z,93.03
2022-11-22T16:19:41.427Z,90.20
2022-11-22T16:24:49.334Z,88.57
2022-11-22T16:29:57.279Z,71.47
2022-11-22T16:35:29.094Z,70.73
2022-11-22T16:40:29.404Z,65.63
2022-11-22T16:45:38.796Z,65.70
2022-11-22T16:50:46.970Z,64.20
2022-11-22T16:55:55.220Z,74.37
2022-11-22T17:01:03.059Z,76.50
2022-11-22T17:06:18.901Z,70.17
2022-11-22T17:11:30.697Z,77.60
2022-11-22T17:16:40.280Z,95.30
2022-11-22T17:21:48.155Z,108.43
2022-11-22T17:26:56.504Z,116.20
2022-11-22T17:32:04.258Z,124.03
2022-11-22T17:37:15.393Z,117.10
2022-11-22T17:42:24.392Z,131.27
2022-11-22T17:47:32.699Z,130.73
2022-11-22T17:52:41.334Z,122.30
2022-11-22T17:57:55.644Z,107.07
2022-11-22T18:03:03.787Z,97.27
2022-11-22T18:08:08.433Z,102.70
2022-11-22T18:13:23.392Z,91.87
2022-11-22T18:18:55.036Z,91.10
2022-11-22T18:23:37.824Z,97.27
2022-11-22T18:29:02.468Z,80.87
2022-11-22T18:33:55.341Z,82.90
2022-11-22T18:39:03.285Z,93.73
2022-11-22T18:44:12.106Z,107.57
2022-11-22T18:49:20.950Z,117.80
2022-11-22T18:54:29.885Z,117.03
2022-11-22T18:59:38.146Z,109.93
2022-11-22T19:04:45.911Z,103.40
2022-11-22T19:09:54.629Z,115.60
2022-11-22T19:15:02.922Z,101.33
2022-11-22T19:20:39.183Z,92.87
2022-11-22T19:25:23.895Z,99.23
2022-11-22T19:30:31.771Z,108.87
2022-11-22T19:35:39.548Z,119.03
2022-11-22T19:40:49.190Z,149.23
2022-11-22T19:46:01.526Z,175.53
2022-11-22T19:51:10.715Z,149.03
2022-11-22T19:56:19.531Z,135.50
2022-11-22T20:01:28.279Z,120.43
2022-11-22T20:06:36.367Z,122.27
2022-11-22T20:11:45.653Z,113.60
2022-11-22T20:16:56.820Z,119.50
2022-11-22T20:22:05.378Z,108.77
2022-11-22T20:27:13.981Z,110.07
2022-11-22T20:32:23.276Z,119.63
2022-11-22T20:37:30.962Z,97.70
2022-11-22T20:42:40.840Z,91.50
2022-11-22T20:47:48.748Z,101.50
2022-11-22T20:52:57.246Z,103.50
2022-11-22T20:58:05.889Z,116.63
2022-11-22T21:03:13.600Z,106.10
2022-11-22T21:08:21.944Z,103.93
2022-11-22T21:13:30.794Z,102.63
2022-11-22T21:18:38.504Z,113.13
2022-11-22T21:23:48.340Z,123.03
2022-11-22T21:28:57.005Z,110.07
2022-11-22T21:34:05.223Z,109.77
2022-11-22T21:39:13.196Z,97.33
2022-11-22T21:44:20.941Z,108.50
2022-11-22T21:49:29.466Z,108.60
2022-11-22T21:54:39.180Z,95.50
2022-11-22T21:59:46.829Z,104.20
2022-11-22T22:04:55.211Z,108.63
2022-11-22T22:10:04.210Z,108.57
2022-11-22T22:15:12.702Z,99.00
2022-11-22T22:20:21.401Z,93.20
2022-11-22T22:25:30.020Z,88.30
2022-11-22T22:30:37.850Z,94.43
2022-11-22T22:35:45.483Z,81.97
2022-11-22T22:40:58.162Z,87.03
2022-11-22T22:46:12.703Z,95.10
2022-11-22T22:51:31.972Z,90.77
2022-11-22T22:56:35.204Z,93.83
2022-11-22T23:01:43.366Z,103.00
2022-11-22T23:06:52.497Z,90.37
2022-11-22T23:12:12.517Z,91.07
2022-11-22T23:17:20.881Z,82.57
2022-11-22T23:22:29.128Z,87.50
2022-11-22T23:27:38.351Z,90.87
2022-11-22T23:32:46.508Z,85.60
2022-11-22T23:37:56.040Z,89.63
2022-11-22T23:43:03.783Z,108.77
2022-11-22T23:48:11.959Z,100.83
2022-11-22T23:53:19.631Z,98.27
2022-11-22T23:58:29.092Z,100.27
